Terminal Aerodrome Forecast
Issued by NWS Duluth, MN

Home | Current Version | Previous Version | Text Only | Print | Product List | Glossary On
Versions: 1 2 3 4 5 6 7 8 9 10 11 12 13 14 15 16 17 18 19 20
374
FTUS43 KDLH 270521
TAFINL
TAF
KINL 270521Z 2706/2806 26005KT P6SM SCT080
     FM271600 25009KT P6SM BKN120
     FM280200 22003KT P6SM BKN150=

USA.gov is the U.S. government's official web portal to all federal, state and local government web resources and services.